invalid date format, no / or - is used, can not process this file use demodata - debug = METAR luchtvaart weer gegevens      EHAM Amsterdam Schiphol
 X  Sluit METAR luchtvaart weer gegevens      EHAM Amsterdam Schiphol

Temperatuur

7°C Temperatuur

4°C Dauwpunt

81% Vochtigheid



Wind

40 KM/U

25 MPH

11 M/S

22 KTS



260°
Het Westen
Huidig weer

Wat bewolking Wat bewolking
Luchtdruk 1013.92 (hPa) - 29.94 (inHg)
Zicht 6.2 (mile) - 10 (km)
Vliegveld
Vliegveld code EHAM

Locatie Amsterdam Schiphol 80 (km)

Metar:
EHAM 171855Z 26022KT 220V280 9999 FEW017 SCT022 BKN035 07/04 Q1014 NOSIG

Tijd: 17-01-2020 19:55 CET